Time;durP1;ratioP1;P1;durP2;ratioP2;P2;SDS_P1;SDS_P2;PMS_P1;PMS_P2;Temp;Humidity;BMP_temperature;BMP_pressure;BME280_temperature;BME280_humidity;BME280_pressure;Samples;Min_cycle;Max_cycle;Signal;HPM_P1;HPM_P2
2023/10/27 00:01:56;;;;;;;3.37;2.50;;;;;;;15.55;70.50;98984.03;124666;1102;104323;-80
2023/10/27 00:04:25;;;;;;;4.53;2.53;;;;;;;15.50;71.21;98980.55;124799;1102;101946;-79
2023/10/27 00:06:53;;;;;;;4.97;2.50;;;;;;;15.43;71.11;98970.03;124916;1102;101897;-81
2023/10/27 00:09:22;;;;;;;6.33;2.80;;;;;;;15.41;71.62;98971.83;125596;1102;102074;-80
2023/10/27 00:11:51;;;;;;;5.80;2.60;;;;;;;15.43;71.71;98974.45;125490;1102;102131;-80
2023/10/27 00:14:19;;;;;;;3.57;2.40;;;;;;;15.41;70.84;98978.86;125445;1102;101739;-81
2023/10/27 00:16:50;;;;;;;6.73;2.87;;;;;;;15.36;71.00;98978.02;124912;1102;102006;-80
2023/10/27 00:19:19;;;;;;;6.23;2.67;;;;;;;15.31;71.92;98977.20;125261;1101;102448;-80
2023/10/27 00:21:47;;;;;;;5.53;2.73;;;;;;;15.23;71.38;98974.61;124798;1101;104105;-80
2023/10/27 00:24:16;;;;;;;4.67;2.63;;;;;;;15.18;71.43;98968.49;124753;1102;104316;-79
2023/10/27 00:26:45;;;;;;;3.70;2.63;;;;;;;15.18;71.33;98968.49;125747;1102;104197;-80
2023/10/27 00:29:13;;;;;;;3.53;2.60;;;;;;;15.18;72.13;98963.20;124742;1105;102045;-80
2023/10/27 00:31:42;;;;;;;4.13;2.67;;;;;;;15.22;71.35;98962.28;124734;1105;101989;-80
2023/10/27 00:34:11;;;;;;;5.87;2.50;;;;;;;15.20;72.35;98962.29;124724;1102;104185;-78
2023/10/27 00:36:39;;;;;;;5.93;2.70;;;;;;;15.14;72.13;98969.39;125515;1101;104255;-80
2023/10/27 00:39:08;;;;;;;3.93;2.63;;;;;;;15.08;72.37;98972.95;126077;1104;101961;-79
2023/10/27 00:41:36;;;;;;;4.70;2.70;;;;;;;15.03;71.95;98967.69;124594;1105;102290;-80
2023/10/27 00:44:06;;;;;;;3.47;2.70;;;;;;;15.04;71.75;98963.31;124617;1105;102103;-78
2023/10/27 00:46:34;;;;;;;3.60;2.47;;;;;;;15.05;72.25;98965.94;125797;1105;101821;-80
2023/10/27 00:49:03;;;;;;;4.47;2.67;;;;;;;15.06;71.80;98965.03;124706;1105;102892;-79
2023/10/27 00:51:33;;;;;;;5.87;2.70;;;;;;;15.05;72.54;98968.58;124733;1102;104265;-79
2023/10/27 00:54:02;;;;;;;4.57;2.70;;;;;;;15.05;73.14;98972.97;124628;1102;104185;-80
2023/10/27 00:56:31;;;;;;;5.13;2.30;;;;;;;15.05;73.04;98967.68;125498;1101;102214;-80
2023/10/27 00:58:59;;;;;;;4.03;2.60;;;;;;;15.08;72.86;98973.84;124695;1102;102149;-80
2023/10/27 01:01:28;;;;;;;4.03;2.30;;;;;;;15.12;72.28;98974.69;124730;1102;104198;-80
2023/10/27 01:03:57;;;;;;;2.93;2.60;;;;;;;15.16;72.79;98978.17;124662;1102;104217;-79
2023/10/27 01:06:27;;;;;;;6.20;3.13;;;;;;;15.17;72.76;98972.87;124956;1102;102387;-79
2023/10/27 01:08:56;;;;;;;6.00;2.97;;;;;;;15.18;72.85;98973.78;124707;1102;102007;-79
2023/10/27 01:11:25;;;;;;;5.37;2.87;;;;;;;15.18;72.36;98968.49;125379;1102;104185;-79
2023/10/27 01:13:54;;;;;;;5.10;2.70;;;;;;;15.19;72.59;98978.16;125137;1101;104189;-79
2023/10/27 01:16:23;;;;;;;4.73;2.87;;;;;;;15.20;72.50;98977.27;124768;1102;104370;-79
2023/10/27 01:18:52;;;;;;;3.77;3.00;;;;;;;15.20;72.53;98978.14;124728;1102;104237;-79
2023/10/27 01:21:20;;;;;;;5.93;3.13;;;;;;;15.15;73.23;98969.38;125254;1102;104239;-80
2023/10/27 01:23:49;;;;;;;5.57;2.80;;;;;;;15.15;72.62;98973.80;124775;1102;101983;-80
2023/10/27 01:26:18;;;;;;;3.27;2.47;;;;;;;15.11;73.41;98970.28;124739;1102;104237;-79
2023/10/27 01:28:46;;;;;;;5.73;2.67;;;;;;;15.09;72.65;98970.30;125045;1102;101875;-78
2023/10/27 01:31:16;;;;;;;6.07;2.70;;;;;;;15.07;73.67;98971.21;124749;1105;102477;-77
2023/10/27 01:33:44;;;;;;;4.37;2.70;;;;;;;15.04;72.73;98969.45;124739;1105;104259;-79
2023/10/27 01:36:13;;;;;;;4.17;2.87;;;;;;;15.00;73.62;98958.92;124810;1104;104352;-79
2023/10/27 01:38:41;;;;;;;3.10;2.70;;;;;;;15.00;72.36;98964.20;124768;1103;104176;-79
2023/10/27 01:41:10;;;;;;;4.80;2.67;;;;;;;14.96;72.80;98958.08;124718;1105;101840;-79
2023/10/27 01:43:39;;;;;;;5.10;2.85;;;;;;;14.92;73.26;98967.77;124718;1104;101932;-79
2023/10/27 01:46:07;;;;;;;6.27;2.77;;;;;;;14.90;73.71;98976.60;125595;1105;102050;-79
2023/10/27 01:48:36;;;;;;;4.00;2.83;;;;;;;14.89;74.07;98977.48;124699;1105;104252;-79
2023/10/27 01:51:05;;;;;;;3.67;2.83;;;;;;;14.90;73.61;98979.24;124601;1105;104307;-78
2023/10/27 01:53:34;;;;;;;6.50;3.03;;;;;;;14.91;72.67;98980.98;124706;1105;104178;-79
2023/10/27 01:56:04;;;;;;;5.40;2.90;;;;;;;14.91;73.66;98980.98;124982;1105;102099;-79
2023/10/27 01:58:32;;;;;;;5.10;2.83;;;;;;;14.88;74.13;98962.51;124627;1105;101958;-79
2023/10/27 02:01:01;;;;;;;4.33;2.70;;;;;;;14.85;73.37;98959.89;125279;1105;102051;-78
2023/10/27 02:03:30;;;;;;;5.77;3.00;;;;;;;14.85;73.60;98959.89;124662;1105;102068;-79
2023/10/27 02:05:59;;;;;;;5.70;2.83;;;;;;;14.84;74.32;98950.23;124720;1102;102156;-79
2023/10/27 02:08:28;;;;;;;5.67;3.20;;;;;;;14.84;73.50;98943.17;124650;1102;101918;-79
2023/10/27 02:10:57;;;;;;;6.33;3.07;;;;;;;14.81;73.69;98943.20;124619;1105;102157;-79
2023/10/27 02:13:25;;;;;;;6.43;3.10;;;;;;;14.80;74.33;98936.15;125240;1101;101909;-79
2023/10/27 02:15:54;;;;;;;5.50;2.80;;;;;;;14.78;74.53;98939.70;124745;1102;104191;-79
2023/10/27 02:18:22;;;;;;;6.13;3.00;;;;;;;14.76;74.69;98938.81;124711;1102;104185;-79
2023/10/27 02:20:51;;;;;;;4.10;2.70;;;;;;;14.74;74.42;98939.72;124712;1102;102042;-79
2023/10/27 02:23:21;;;;;;;4.80;2.80;;;;;;;14.70;74.01;98945.90;124638;1102;104236;-80
2023/10/27 02:25:49;;;;;;;5.33;3.00;;;;;;;14.68;73.89;98957.37;124796;1105;104326;-79
2023/10/27 02:28:18;;;;;;;7.00;3.17;;;;;;;14.64;74.55;98948.58;124617;1102;104176;-79
2023/10/27 02:30:46;;;;;;;5.07;3.20;;;;;;;14.63;74.83;98957.40;124683;1102;102109;-81
2023/10/27 02:33:16;;;;;;;5.50;3.25;;;;;;;14.60;74.27;98965.34;124765;1102;104172;-82
2023/10/27 02:35:44;;;;;;;6.47;3.10;;;;;;;14.57;74.27;98975.88;124714;1102;101952;-80
2023/10/27 02:38:13;;;;;;;5.20;3.20;;;;;;;14.55;74.99;98978.52;124725;1105;104188;-79
2023/10/27 02:40:41;;;;;;;6.20;3.10;;;;;;;14.54;74.49;98989.09;124649;1105;102265;-79
2023/10/27 02:43:12;;;;;;;7.17;3.10;;;;;;;14.48;74.73;98992.62;124697;1102;104196;-79
2023/10/27 02:45:41;;;;;;;6.17;3.23;;;;;;;14.50;74.90;99003.17;124725;1102;104175;-79
2023/10/27 02:48:10;;;;;;;6.73;3.43;;;;;;;14.49;75.00;99009.32;124699;1102;101946;-80
2023/10/27 02:50:38;;;;;;;6.50;3.67;;;;;;;14.47;74.59;99011.09;124540;1105;104172;-80
2023/10/27 02:53:09;;;;;;;5.80;3.53;;;;;;;14.45;75.26;99010.23;124812;1102;102047;-80
2023/10/27 02:55:37;;;;;;;6.73;3.60;;;;;;;14.43;75.13;99022.54;124747;1102;104188;-80
2023/10/27 02:58:06;;;;;;;5.53;3.30;;;;;;;14.38;75.44;99026.09;124740;1102;101918;-79
2023/10/27 03:00:35;;;;;;;8.30;3.63;;;;;;;14.35;75.40;99036.66;124732;1102;104258;-80
2023/10/27 03:03:04;;;;;;;6.67;3.80;;;;;;;14.35;75.61;99044.57;124681;1102;104175;-80
2023/10/27 03:05:32;;;;;;;7.20;3.57;;;;;;;14.35;74.92;99047.21;124631;1102;102773;-79
2023/10/27 03:08:01;;;;;;;7.53;3.87;;;;;;;14.33;75.51;99046.31;124704;1103;101805;-79
2023/10/27 03:10:31;;;;;;;6.97;3.73;;;;;;;14.30;75.12;99033.13;124644;1105;101925;-79
2023/10/27 03:13:00;;;;;;;5.90;3.60;;;;;;;14.29;75.25;99031.39;125762;1102;101925;-79
2023/10/27 03:15:29;;;;;;;5.30;3.20;;;;;;;14.28;74.86;99026.13;124689;1102;102015;-80
2023/10/27 03:17:58;;;;;;;6.80;3.33;;;;;;;14.26;74.94;99017.31;124680;1102;104360;-79
2023/10/27 03:20:26;;;;;;;8.93;4.10;;;;;;;14.25;75.87;99015.58;124697;1103;104303;-79
2023/10/27 03:22:55;;;;;;;8.47;4.00;;;;;;;14.24;75.61;99014.68;124703;1102;102042;-79
2023/10/27 03:25:23;;;;;;;5.10;3.37;;;;;;;14.23;75.72;99022.59;124732;1102;104316;-80
2023/10/27 03:27:52;;;;;;;4.90;3.23;;;;;;;14.20;75.04;99032.28;124746;1102;104313;-79
2023/10/27 03:30:21;;;;;;;8.07;3.90;;;;;;;14.17;76.00;99023.52;124625;1102;102025;-80
2023/10/27 03:32:50;;;;;;;20.53;8.70;;;;;;;14.07;75.25;99024.40;124601;1102;102042;-80
2023/10/27 03:35:19;;;;;;;21.30;8.90;;;;;;;13.97;75.06;99029.69;124627;1102;104297;-80
2023/10/27 03:37:48;;;;;;;16.40;7.73;;;;;;;13.95;75.32;99028.83;124689;1102;102041;-79
2023/10/27 03:40:18;;;;;;;22.60;9.07;;;;;;;13.94;75.25;99027.06;124682;1102;104182;-79
2023/10/27 03:42:47;;;;;;;18.50;8.63;;;;;;;13.92;76.00;99023.56;124710;1102;104179;-80
2023/10/27 03:45:16;;;;;;;18.90;7.20;;;;;;;13.93;76.00;99020.05;124677;1102;102106;-79
2023/10/27 03:47:44;;;;;;;14.87;7.03;;;;;;;13.88;75.99;99024.43;124914;1102;104176;-78
2023/10/27 03:50:13;;;;;;;15.73;6.87;;;;;;;13.86;76.53;99031.47;124568;1105;101920;-79
2023/10/27 03:52:42;;;;;;;18.17;7.43;;;;;;;13.88;76.52;99032.34;124691;1102;102178;-81
2023/10/27 03:55:12;;;;;;;16.33;7.53;;;;;;;13.88;76.58;99034.98;124601;1102;101872;-80
2023/10/27 03:57:42;;;;;;;17.45;7.30;;;;;;;13.90;76.01;99025.33;124645;1102;104252;-79
2023/10/27 04:00:13;;;;;;;15.90;7.00;;;;;;;13.90;76.42;99025.33;124551;1102;103034;-78
2023/10/27 04:02:43;;;;;;;15.97;6.73;;;;;;;13.91;75.98;99026.20;124646;1102;104392;-79
2023/10/27 04:05:12;;;;;;;12.67;6.23;;;;;;;13.92;77.17;99028.83;124834;1102;102287;-79
2023/10/27 04:07:41;;;;;;;12.33;5.93;;;;;;;13.93;76.44;99027.06;124655;1102;104230;-79
2023/10/27 04:10:10;;;;;;;10.87;5.43;;;;;;;13.91;76.19;99019.16;124685;1105;104316;-78
2023/10/27 04:12:39;;;;;;;13.43;6.43;;;;;;;13.92;76.59;99017.42;124613;1105;104286;-78
2023/10/27 04:15:10;;;;;;;13.87;6.17;;;;;;;13.90;76.54;99009.51;124582;1105;104188;-78
2023/10/27 04:17:38;;;;;;;12.60;5.97;;;;;;;13.89;76.62;99012.15;124580;1104;104211;-76
2023/10/27 04:20:10;;;;;;;12.00;5.73;;;;;;;13.87;76.84;99009.52;124478;1105;104233;-76
2023/10/27 04:22:38;;;;;;;10.47;5.63;;;;;;;13.85;77.38;99000.70;124463;1102;101829;-77
2023/10/27 04:25:08;;;;;;;14.97;6.30;;;;;;;13.84;77.46;99002.47;124474;1102;104729;-77
2023/10/27 04:27:37;;;;;;;13.73;6.30;;;;;;;13.86;77.36;99004.24;124641;1105;101957;-77
2023/10/27 04:30:11;;;;;;;15.33;6.00;;;;;;;13.87;77.85;99006.88;124539;1105;104179;-77
2023/10/27 04:32:40;;;;;;;12.50;6.22;;;;;;;13.80;77.08;99003.34;124575;1104;104185;-77
2023/10/27 04:35:12;;;;;;;12.07;6.43;;;;;;;13.77;77.45;99002.48;124525;1105;102081;-76
2023/10/27 04:37:41;;;;;;;12.90;6.10;;;;;;;13.77;77.62;98999.84;124565;1104;104181;-76
2023/10/27 04:40:12;;;;;;;13.70;6.77;;;;;;;13.76;77.57;98996.34;124602;1103;102047;-75
2023/10/27 04:42:40;;;;;;;15.97;6.80;;;;;;;13.77;77.05;98998.08;124972;1102;104089;-77
2023/10/27 04:45:10;;;;;;;14.13;6.50;;;;;;;13.79;77.53;99001.61;124898;1105;104098;-76
2023/10/27 04:47:39;;;;;;;14.83;7.00;;;;;;;13.79;78.19;99006.88;124608;1105;104254;-77
2023/10/27 04:50:09;;;;;;;15.10;7.00;;;;;;;13.81;77.68;99004.25;124668;1105;104210;-75
2023/10/27 04:52:38;;;;;;;14.80;6.60;;;;;;;13.82;77.87;99011.25;124460;1105;104207;-75
2023/10/27 04:55:08;;;;;;;13.90;6.80;;;;;;;13.79;78.25;99008.63;124782;1105;101983;-78
2023/10/27 04:57:41;;;;;;;13.17;6.63;;;;;;;13.78;77.45;99020.94;125492;1104;101798;-81
2023/10/27 05:00:12;;;;;;;16.63;7.07;;;;;;;13.77;77.64;99028.84;125137;1105;101939;-76
2023/10/27 05:02:41;;;;;;;17.60;8.33;;;;;;;13.74;77.67;99036.75;126240;1103;102223;-77
2023/10/27 05:05:11;;;;;;;18.83;8.23;;;;;;;13.70;77.75;99041.16;126406;1103;101932;-76
2023/10/27 05:07:40;;;;;;;16.97;7.70;;;;;;;13.71;78.47;99045.53;124491;1105;101954;-78
2023/10/27 05:10:09;;;;;;;17.50;8.13;;;;;;;13.73;77.76;99038.52;124638;1105;102012;-78
2023/10/27 05:12:39;;;;;;;18.53;8.23;;;;;;;13.75;78.40;99043.80;124474;1105;104313;-77
2023/10/27 05:15:11;;;;;;;17.47;8.20;;;;;;;13.78;78.07;99041.16;124417;1105;104254;-75
2023/10/27 05:17:40;;;;;;;18.23;7.83;;;;;;;13.80;78.52;99049.94;124591;1105;104390;-78
2023/10/27 05:20:14;;;;;;;18.53;8.37;;;;;;;13.83;78.26;99050.80;125143;1104;104191;-78
2023/10/27 05:22:48;;;;;;;21.90;10.13;;;;;;;13.85;78.53;99056.07;125648;1104;104348;-76
2023/10/27 05:25:17;;;;;;;19.90;9.30;;;;;;;13.87;78.16;99064.88;124506;1105;102032;-79
2023/10/27 05:27:52;;;;;;;20.55;9.65;;;;;;;13.94;78.73;99063.98;124812;1105;102032;-78
2023/10/27 05:30:25;;;;;;;23.23;10.23;;;;;;;14.02;78.57;99062.23;124608;1105;103703;-78
2023/10/27 05:32:56;;;;;;;18.17;9.67;;;;;;;14.08;78.40;99066.59;126302;1104;101804;-78
2023/10/27 05:35:27;;;;;;;20.07;9.87;;;;;;;14.12;79.12;99065.73;125795;1104;104197;-78
2023/10/27 05:37:58;;;;;;;22.00;11.00;;;;;;;14.18;79.14;99065.72;124773;1104;101889;-78
2023/10/27 05:40:31;;;;;;;25.50;10.80;;;;;;;14.23;79.41;99064.81;124481;1105;101989;-76
2023/10/27 05:43:03;;;;;;;22.57;10.27;;;;;;;14.27;78.80;99072.72;124347;1105;102071;-74
2023/10/27 05:45:35;;;;;;;22.50;10.60;;;;;;;14.34;78.73;99069.19;124653;1105;104091;-76
2023/10/27 05:48:07;;;;;;;22.97;10.90;;;;;;;14.38;79.31;99068.31;125171;1104;110819;-75
2023/10/27 05:50:37;;;;;;;21.73;10.63;;;;;;;14.42;78.74;99071.81;124654;1106;101884;-76
2023/10/27 05:53:09;;;;;;;23.97;10.70;;;;;;;14.46;78.38;99062.12;125606;1104;104231;-79
2023/10/27 05:55:44;;;;;;;26.43;11.83;;;;;;;14.51;78.91;99065.64;125134;1105;104217;-84
2023/10/27 05:58:22;;;;;;;21.82;11.75;;;;;;;14.58;78.79;99062.08;124860;1105;104233;-81
2023/10/27 06:00:56;;;;;;;22.47;10.77;;;;;;;14.63;79.21;99057.71;125947;1103;101814;-84
2023/10/27 06:03:32;;;;;;;27.83;11.47;;;;;;;14.72;78.69;99062.95;126113;1105;104252;-84
2023/10/27 06:06:05;;;;;;;23.53;12.53;;;;;;;14.78;79.28;99056.75;126216;1104;102786;-83
2023/10/27 06:08:41;;;;;;;24.93;11.80;;;;;;;14.83;79.23;99064.66;126855;1103;107845;-79
2023/10/27 06:11:17;;;;;;;23.63;12.03;;;;;;;14.90;79.37;99058.47;126274;1105;101250;-81
2023/10/27 06:13:46;;;;;;;25.27;11.30;;;;;;;14.97;79.43;99056.67;126976;1102;102122;-81
2023/10/27 06:16:15;;;;;;;26.13;11.47;;;;;;;15.03;78.80;99056.64;125022;1102;102924;-85
2023/10/27 06:18:45;;;;;;;24.23;10.13;;;;;;;15.11;79.59;99052.17;125381;1105;103215;-81
2023/10/27 06:21:16;;;;;;;22.25;10.60;;;;;;;15.18;78.89;99053.91;125429;1102;101840;-80
2023/10/27 06:23:49;;;;;;;27.73;11.13;;;;;;;15.24;79.33;99059.16;125166;1102;102174;-81
2023/10/27 06:26:22;;;;;;;24.03;9.20;;;;;;;15.31;78.44;99049.41;124983;1106;101987;-83
2023/10/27 06:29:05;;;;;;;20.67;9.20;;;;;;;15.37;78.46;99046.73;125368;1105;104216;-82
2023/10/27 06:31:34;;;;;;;24.43;10.13;;;;;;;15.44;78.39;99050.20;125193;1105;104223;-78
2023/10/27 06:34:14;;;;;;;20.73;10.07;;;;;;;15.49;78.58;99050.16;125796;1105;101916;-83
2023/10/27 06:36:47;;;;;;;24.73;9.87;;;;;;;15.55;78.71;99055.41;125744;1105;101845;-81
2023/10/27 06:39:24;;;;;;;23.37;9.63;;;;;;;15.59;78.15;99050.08;126380;1105;102645;-82
2023/10/27 06:42:04;;;;;;;20.10;9.13;;;;;;;15.66;78.21;99044.75;126228;1102;101794;-81
2023/10/27 06:44:33;;;;;;;23.50;9.53;;;;;;;15.73;78.34;99041.17;125211;1102;102311;-79
2023/10/27 06:47:07;;;;;;;19.27;8.20;;;;;;;15.79;78.67;99043.80;125540;1102;104207;-81
2023/10/27 06:49:36;;;;;;;19.40;8.20;;;;;;;15.85;78.86;99040.20;124953;1102;104255;-81
2023/10/27 06:52:23;;;;;;;20.47;8.73;;;;;;;15.92;78.54;99037.48;125197;1105;102204;-81
2023/10/27 06:54:54;;;;;;;16.93;7.50;;;;;;;16.01;78.20;99041.83;125109;1105;104255;-80
2023/10/27 06:57:27;;;;;;;16.10;6.50;;;;;;;16.08;78.71;99032.95;125111;1105;104283;-80
2023/10/27 06:59:58;;;;;;;21.33;6.70;;;;;;;16.17;78.23;99038.15;125441;1102;101939;-82
2023/10/27 07:02:38;;;;;;;15.60;5.30;;;;;;;16.25;78.38;99034.52;124818;1102;104239;-81
2023/10/27 07:05:10;;;;;;;17.57;6.00;;;;;;;16.35;78.35;99036.19;124637;1102;102003;-79
2023/10/27 07:07:51;;;;;;;13.10;5.40;;;;;;;16.43;78.16;99036.97;124789;1102;102067;-82
2023/10/27 07:10:20;;;;;;;12.37;5.40;;;;;;;16.51;78.18;99042.17;124937;1102;104316;-78
2023/10/27 07:12:50;;;;;;;16.00;5.33;;;;;;;16.59;78.42;99036.79;124875;1106;104172;-78
2023/10/27 07:15:24;;;;;;;11.27;5.00;;;;;;;16.67;78.20;99041.11;124768;1106;104640;-76
2023/10/27 07:17:54;;;;;;;11.93;4.70;;;;;;;16.77;78.07;99038.34;125534;1105;101872;-80
2023/10/27 07:20:27;;;;;;;8.33;4.23;;;;;;;16.87;78.10;99034.69;124772;1103;102076;-77
2023/10/27 07:22:57;;;;;;;13.40;5.15;;;;;;;16.92;77.81;99037.28;124799;1102;102318;-81
2023/10/27 07:25:28;;;;;;;12.63;5.00;;;;;;;16.93;77.45;99031.97;124980;1105;102259;-79
2023/10/27 07:28:00;;;;;;;12.47;5.37;;;;;;;16.98;77.58;99037.20;125759;1105;101731;-82
2023/10/27 07:30:30;;;;;;;12.50;5.75;;;;;;;17.02;76.93;99046.88;126114;1105;104188;-80
2023/10/27 07:33:51;;;;;;;12.13;5.30;;;;;;;17.09;77.48;99040.56;125266;1103;104728;-79
2023/10/27 07:36:23;;;;;;;19.53;5.23;;;;;;;17.19;77.31;99043.98;125595;1105;104223;-78
2023/10/27 07:38:57;;;;;;;13.30;5.60;;;;;;;17.30;77.47;99035.88;124825;1105;102288;-78
2023/10/27 07:41:27;;;;;;;12.50;5.78;;;;;;;17.38;76.98;99031.32;124826;1105;102901;-82
2023/10/27 07:44:01;;;;;;;14.18;5.70;;;;;;;17.47;77.15;99035.59;125230;1105;101887;-83
2023/10/27 07:47:04;;;;;;;;;;;;;;;;;;;;;
2023/10/27 07:50:17;;;;;;;15.27;5.57;;;;;;;17.65;76.81;99040.59;126150;1102;101965;-82
2023/10/27 07:52:50;;;;;;;11.83;6.03;;;;;;;17.73;76.87;99043.13;126051;1104;101821;-85
2023/10/27 07:55:22;;;;;;;13.30;6.20;;;;;;;17.80;76.70;99039.48;125762;1101;104204;-82
2023/10/27 07:58:13;;;;;;;16.27;6.63;;;;;;;17.90;76.63;99029.61;125179;1102;102249;-82
2023/10/27 08:00:56;;;;;;;15.43;7.03;;;;;;;17.94;76.52;99029.52;125589;1102;104220;-84
2023/10/27 08:03:46;;;;;;;14.70;6.40;;;;;;;18.02;75.82;99024.08;125850;1102;102642;-81
2023/10/27 08:06:30;;;;;;;19.17;7.07;;;;;;;18.09;76.21;99022.18;125684;1102;104156;-81
2023/10/27 08:09:34;;;;;;;20.90;7.90;;;;;;;18.19;75.84;99014.94;126755;1101;101880;-81
2023/10/27 08:12:20;;;;;;;16.43;7.03;;;;;;;18.27;75.86;99013.01;125171;1102;104172;-79
2023/10/27 08:15:11;;;;;;;17.30;7.03;;;;;;;18.38;75.83;99016.31;125843;1101;102019;-78
2023/10/27 08:17:53;;;;;;;20.30;7.83;;;;;;;18.53;75.69;99020.45;125667;1104;103211;-82
2023/10/27 08:20:39;;;;;;;18.40;7.93;;;;;;;18.66;75.32;99011.31;126396;1105;101776;-79
2023/10/27 08:23:28;;;;;;;19.87;7.10;;;;;;;18.84;75.51;99011.84;125618;1102;102082;-78
2023/10/27 08:26:05;;;;;;;16.90;6.77;;;;;;;18.96;75.47;99016.03;124489;1102;104310;-77
2023/10/27 08:31:34;;;;;;;18.63;4.97;;;;;;;19.35;74.76;98992.98;124929;1102;102335;-78
2023/10/27 08:34:11;;;;;;;7.00;3.50;;;;;;;19.54;74.34;98989.84;126072;1102;101932;-79
2023/10/27 08:36:46;;;;;;;9.17;2.93;;;;;;;19.85;74.15;98994.42;125875;1105;102230;-82
2023/10/27 08:39:20;;;;;;;7.90;3.13;;;;;;;20.07;73.97;98992.05;125970;1105;102002;-79
2023/10/27 08:41:59;;;;;;;6.30;2.90;;;;;;;20.21;73.06;98986.34;125668;1105;104335;-83
2023/10/27 08:47:38;;;;;;;12.45;4.30;;;;;;;20.36;71.92;98985.05;125822;1105;104176;-83
2023/10/27 08:50:35;;;;;;;3.73;2.80;;;;;;;20.40;71.65;98986.73;126234;1102;101906;-85
2023/10/27 08:53:22;;;;;;;6.77;2.50;;;;;;;20.43;70.99;98976.84;126634;1102;111158;-85
2023/10/27 08:55:55;;;;;;;6.97;3.47;;;;;;;20.47;71.12;98972.29;126121;1102;104156;-85
2023/10/27 08:58:36;;;;;;;5.87;3.20;;;;;;;20.53;71.03;98964.12;125933;1105;102709;-88
2023/10/27 09:01:16;;;;;;;8.53;3.20;;;;;;;20.62;70.08;98968.31;126133;1102;102212;-80
2023/10/27 09:04:12;;;;;;;7.87;3.40;;;;;;;20.70;69.96;98963.65;125953;1101;102035;-81
2023/10/27 09:06:43;;;;;;;7.40;2.80;;;;;;;20.81;70.24;98972.19;125048;1102;104200;-80
2023/10/27 09:09:17;;;;;;;5.60;2.80;;;;;;;20.83;70.08;98956.14;124925;1105;104274;-80
2023/10/27 09:12:38;;;;;;;;;;;;;;;;;;;;;
2023/10/27 09:15:15;;;;;;;7.00;3.10;;;;;;;20.90;68.82;98941.72;125649;1105;104096;-84
2023/10/27 09:21:37;;;;;;;6.23;2.80;;;;;;;21.12;68.77;98939.23;126271;1103;104251;-81
2023/10/27 09:24:22;;;;;;;;;;;;;;;;;;;;;
2023/10/27 09:27:00;;;;;;;3.07;2.10;;;;;;;21.24;67.36;98927.30;125817;1105;102726;-83
2023/10/27 09:30:02;;;;;;;4.77;2.40;;;;;;;21.35;67.07;98922.47;125697;1105;101961;-82
2023/10/27 09:32:42;;;;;;;5.12;2.00;;;;;;;21.40;66.19;98910.78;124746;1102;104182;-88
2023/10/27 09:35:22;;;;;;;6.17;3.13;;;;;;;21.44;66.62;98897.29;125302;1102;101852;-85
2023/10/27 09:37:55;;;;;;;7.33;3.20;;;;;;;21.52;65.92;98887.25;125539;1104;102365;-80
2023/10/27 09:40:33;;;;;;;5.00;2.60;;;;;;;21.67;65.29;98884.95;125218;1102;102069;-81
2023/10/27 09:43:09;;;;;;;4.20;2.37;;;;;;;21.79;64.89;98876.51;125405;1102;102101;-79
2023/10/27 09:45:50;;;;;;;4.83;2.00;;;;;;;21.93;65.08;98873.34;125750;1105;102819;-84
2023/10/27 09:48:26;;;;;;;4.53;1.90;;;;;;;22.06;64.06;98868.41;126224;1103;102251;-84
2023/10/27 09:51:30;;;;;;;6.07;2.10;;;;;;;22.11;63.33;98861.11;126317;1104;101839;-85
2023/10/27 09:54:05;;;;;;;4.70;2.00;;;;;;;22.16;62.96;98867.14;125627;1106;102791;-82
2023/10/27 09:56:57;;;;;;;3.30;2.00;;;;;;;22.23;62.25;98859.76;126168;1102;104243;-80
2023/10/27 09:59:49;;;;;;;4.70;2.00;;;;;;;22.31;62.20;98859.50;124974;1102;104189;-83
2023/10/27 10:02:39;;;;;;;4.87;2.20;;;;;;;22.30;61.18;98850.63;125457;1102;101768;-86
2023/10/27 10:05:27;;;;;;;3.33;2.13;;;;;;;22.34;60.92;98843.34;125358;1102;102085;-85
2023/10/27 10:07:56;;;;;;;6.40;2.57;;;;;;;22.41;60.52;98843.05;125433;1102;101850;-83
2023/10/27 10:10:34;;;;;;;3.67;2.00;;;;;;;22.47;60.27;98831.26;125232;1102;102027;-82
2023/10/27 10:13:14;;;;;;;4.13;2.37;;;;;;;22.59;59.91;98828.09;125332;1105;102600;-83
2023/10/27 10:15:44;;;;;;;5.20;1.90;;;;;;;22.68;60.17;98821.48;126495;1102;101791;-82
2023/10/27 10:18:46;;;;;;;4.30;2.10;;;;;;;22.75;58.90;98814.08;125854;1105;101844;-84
2023/10/27 10:21:33;;;;;;;4.97;2.40;;;;;;;22.79;59.07;98807.69;126428;1102;102426;-84
2023/10/27 10:24:13;;;;;;;8.63;2.33;;;;;;;22.85;58.17;98804.76;125794;1102;101965;-84
2023/10/27 10:27:12;;;;;;;4.13;2.30;;;;;;;22.91;57.57;98807.17;125920;1104;102080;-81
2023/10/27 10:29:41;;;;;;;7.10;2.03;;;;;;;22.96;56.57;98797.14;125385;1102;102093;-83
2023/10/27 10:32:32;;;;;;;3.37;1.83;;;;;;;22.96;56.08;98789.13;125862;1102;101826;-83
2023/10/27 10:35:26;;;;;;;2.60;1.60;;;;;;;22.88;54.83;98782.37;125961;1102;102000;-81
2023/10/27 10:38:29;;;;;;;2.83;1.52;;;;;;;22.96;54.87;98791.80;125954;1102;101677;-81
2023/10/27 10:41:11;;;;;;;6.43;1.90;;;;;;;23.00;54.69;98786.31;125816;1105;101781;-83
2023/10/27 10:43:45;;;;;;;4.47;1.87;;;;;;;23.02;54.86;98788.00;125535;1105;104146;-81
2023/10/27 10:46:29;;;;;;;5.27;2.13;;;;;;;23.02;53.79;98782.66;126470;1101;104188;-85
2023/10/27 10:49:30;;;;;;;4.17;2.20;;;;;;;23.05;53.80;98779.84;126265;1103;102110;-85
2023/10/27 10:52:19;;;;;;;6.20;2.40;;;;;;;23.11;54.04;98781.44;125446;1104;101786;-81
2023/10/27 10:54:53;;;;;;;4.55;2.25;;;;;;;23.09;53.02;98769.91;126013;1105;101662;-83
2023/10/27 10:57:27;;;;;;;6.07;1.90;;;;;;;23.11;53.41;98768.92;125412;1105;104227;-84
2023/10/27 10:59:59;;;;;;;6.10;2.23;;;;;;;23.13;53.19;98759.01;125154;1104;104711;-84
2023/10/27 11:02:40;;;;;;;3.87;2.27;;;;;;;23.17;53.22;98751.73;125411;1105;103215;-81
2023/10/27 11:05:25;;;;;;;7.70;2.20;;;;;;;23.19;52.91;98752.53;125380;1104;104188;-82
2023/10/27 11:07:59;;;;;;;6.83;2.20;;;;;;;23.19;52.74;98749.86;124612;1105;103705;-80
2023/10/27 11:10:33;;;;;;;7.17;2.47;;;;;;;23.20;52.61;98735.52;124542;1105;104301;-77
2023/10/27 11:13:10;;;;;;;4.87;2.60;;;;;;;23.25;52.68;98733.53;124598;1105;102007;-80
2023/10/27 11:15:44;;;;;;;6.30;2.60;;;;;;;23.28;52.12;98730.72;125124;1105;102728;-82
2023/10/27 11:18:18;;;;;;;4.97;2.57;;;;;;;23.28;51.82;98721.80;126682;1104;101831;-79
2023/10/27 11:20:54;;;;;;;7.23;2.70;;;;;;;23.31;51.60;98717.20;126784;1101;101713;-78
2023/10/27 11:23:35;;;;;;;5.20;2.50;;;;;;;23.34;51.80;98705.47;126118;1101;101760;-79
2023/10/27 11:26:09;;;;;;;9.83;2.77;;;;;;;23.34;51.28;98708.15;124713;1102;102615;-79
2023/10/27 11:28:40;;;;;;;4.63;2.37;;;;;;;23.35;51.52;98698.34;124468;1102;104243;-80
2023/10/27 11:31:12;;;;;;;4.67;2.37;;;;;;;23.37;51.70;98693.77;125735;1102;102816;-81
2023/10/27 11:34:03;;;;;;;8.83;2.60;;;;;;;23.38;51.36;98688.35;125766;1102;101820;-81
2023/10/27 11:36:34;;;;;;;8.60;2.67;;;;;;;23.42;51.21;98689.06;125857;1101;102046;-82
2023/10/27 11:39:25;;;;;;;8.73;2.80;;;;;;;23.50;50.40;98673.55;125487;1105;102028;-79
2023/10/27 11:42:03;;;;;;;8.73;3.43;;;;;;;23.65;50.20;98677.30;124867;1105;102269;-86
2023/10/27 11:44:45;;;;;;;9.77;4.17;;;;;;;23.74;49.92;98684.04;125927;1102;102089;-81
2023/10/27 11:47:18;;;;;;;6.73;2.93;;;;;;;23.78;49.98;98680.25;124919;1105;104175;-77
2023/10/27 11:50:00;;;;;;;13.77;5.73;;;;;;;23.75;49.29;98677.72;125251;1105;104785;-78
2023/10/27 11:52:34;;;;;;;12.13;4.47;;;;;;;23.71;48.95;98689.54;125859;1102;104179;-78
2023/10/27 11:55:37;;;;;;;9.90;3.30;;;;;;;23.64;49.13;98686.29;125714;1102;103225;-80
2023/10/27 11:58:29;;;;;;;9.13;3.03;;;;;;;23.55;48.75;98687.58;125206;1102;106976;-79
2023/10/27 12:01:21;;;;;;;7.67;3.23;;;;;;;23.46;48.60;98677.30;125081;1102;102325;-81